sensor_id;sensor_type;location;lat;lon;timestamp;P1;durP1;ratioP1;P2;durP2;ratioP2
23230;SDS011;11784;49.818;8.632;2024-02-26T00:02:05;1.00;;;0.70;;
23230;SDS011;11784;49.818;8.632;2024-02-26T00:04:31;1.25;;;0.60;;
23230;SDS011;11784;49.818;8.632;2024-02-26T00:06:57;0.80;;;0.70;;
23230;SDS011;11784;49.818;8.632;2024-02-26T00:09:23;0.93;;;0.60;;
23230;SDS011;11784;49.818;8.632;2024-02-26T00:11:49;1.85;;;0.70;;
23230;SDS011;11784;49.818;8.632;2024-02-26T00:14:15;1.73;;;0.65;;
23230;SDS011;11784;49.818;8.632;2024-02-26T00:16:41;1.40;;;0.90;;
23230;SDS011;11784;49.818;8.632;2024-02-26T00:19:07;1.65;;;0.70;;
23230;SDS011;11784;49.818;8.632;2024-02-26T00:21:33;3.72;;;0.70;;
23230;SDS011;11784;49.818;8.632;2024-02-26T00:23:59;2.97;;;0.73;;
23230;SDS011;11784;49.818;8.632;2024-02-26T00:26:25;1.95;;;0.80;;
23230;SDS011;11784;49.818;8.632;2024-02-26T00:28:51;1.30;;;0.70;;
23230;SDS011;11784;49.818;8.632;2024-02-26T00:31:17;2.00;;;0.90;;
23230;SDS011;11784;49.818;8.632;2024-02-26T00:33:43;1.23;;;0.60;;
23230;SDS011;11784;49.818;8.632;2024-02-26T00:36:09;1.20;;;0.68;;
23230;SDS011;11784;49.818;8.632;2024-02-26T00:38:35;0.88;;;0.65;;
23230;SDS011;11784;49.818;8.632;2024-02-26T00:41:01;1.63;;;0.85;;
23230;SDS011;11784;49.818;8.632;2024-02-26T00:43:27;1.20;;;0.80;;
23230;SDS011;11784;49.818;8.632;2024-02-26T00:45:53;0.80;;;0.60;;
23230;SDS011;11784;49.818;8.632;2024-02-26T00:48:19;1.73;;;0.85;;
23230;SDS011;11784;49.818;8.632;2024-02-26T00:50:45;1.55;;;0.70;;
23230;SDS011;11784;49.818;8.632;2024-02-26T00:53:11;0.82;;;0.70;;
23230;SDS011;11784;49.818;8.632;2024-02-26T00:55:37;1.05;;;0.50;;
23230;SDS011;11784;49.818;8.632;2024-02-26T00:58:03;2.30;;;0.70;;
23230;SDS011;11784;49.818;8.632;2024-02-26T01:00:29;4.30;;;0.80;;
23230;SDS011;11784;49.818;8.632;2024-02-26T01:02:55;1.15;;;0.68;;
23230;SDS011;11784;49.818;8.632;2024-02-26T01:05:21;1.23;;;0.60;;
23230;SDS011;11784;49.818;8.632;2024-02-26T01:07:47;1.48;;;0.60;;
23230;SDS011;11784;49.818;8.632;2024-02-26T01:10:13;1.33;;;0.68;;
23230;SDS011;11784;49.818;8.632;2024-02-26T01:12:39;1.25;;;0.60;;
23230;SDS011;11784;49.818;8.632;2024-02-26T01:15:05;1.05;;;0.70;;
23230;SDS011;11784;49.818;8.632;2024-02-26T01:17:31;0.88;;;0.50;;
23230;SDS011;11784;49.818;8.632;2024-02-26T01:19:57;0.93;;;0.65;;
23230;SDS011;11784;49.818;8.632;2024-02-26T01:22:23;1.98;;;0.60;;
23230;SDS011;11784;49.818;8.632;2024-02-26T01:24:49;3.35;;;0.90;;
23230;SDS011;11784;49.818;8.632;2024-02-26T01:27:15;0.80;;;0.60;;
23230;SDS011;11784;49.818;8.632;2024-02-26T01:29:41;1.10;;;0.80;;
23230;SDS011;11784;49.818;8.632;2024-02-26T01:32:08;1.17;;;0.60;;
23230;SDS011;11784;49.818;8.632;2024-02-26T01:34:34;1.42;;;0.73;;
23230;SDS011;11784;49.818;8.632;2024-02-26T01:37:01;1.33;;;0.70;;
23230;SDS011;11784;49.818;8.632;2024-02-26T01:39:27;1.45;;;0.68;;
23230;SDS011;11784;49.818;8.632;2024-02-26T01:41:55;0.80;;;0.68;;
23230;SDS011;11784;49.818;8.632;2024-02-26T01:44:21;1.10;;;0.50;;
23230;SDS011;11784;49.818;8.632;2024-02-26T01:46:47;0.77;;;0.40;;
23230;SDS011;11784;49.818;8.632;2024-02-26T01:49:13;1.92;;;0.70;;
23230;SDS011;11784;49.818;8.632;2024-02-26T01:51:40;1.17;;;0.70;;
23230;SDS011;11784;49.818;8.632;2024-02-26T01:54:07;2.28;;;0.60;;
23230;SDS011;11784;49.818;8.632;2024-02-26T01:56:33;2.05;;;0.70;;
23230;SDS011;11784;49.818;8.632;2024-02-26T01:59:00;4.15;;;0.75;;
23230;SDS011;11784;49.818;8.632;2024-02-26T02:01:28;0.85;;;0.70;;
23230;SDS011;11784;49.818;8.632;2024-02-26T02:03:56;1.45;;;0.70;;
23230;SDS011;11784;49.818;8.632;2024-02-26T02:06:23;1.25;;;0.70;;
23230;SDS011;11784;49.818;8.632;2024-02-26T02:08:49;2.45;;;0.68;;
23230;SDS011;11784;49.818;8.632;2024-02-26T02:11:16;2.22;;;0.75;;
23230;SDS011;11784;49.818;8.632;2024-02-26T02:13:42;2.78;;;0.70;;
23230;SDS011;11784;49.818;8.632;2024-02-26T02:16:08;1.58;;;0.77;;
23230;SDS011;11784;49.818;8.632;2024-02-26T02:18:34;1.88;;;0.80;;
23230;SDS011;11784;49.818;8.632;2024-02-26T02:21:00;1.30;;;0.68;;
23230;SDS011;11784;49.818;8.632;2024-02-26T02:23:26;1.42;;;0.82;;
23230;SDS011;11784;49.818;8.632;2024-02-26T02:25:52;1.90;;;0.85;;
23230;SDS011;11784;49.818;8.632;2024-02-26T02:28:20;2.60;;;0.93;;
23230;SDS011;11784;49.818;8.632;2024-02-26T02:30:46;1.42;;;0.70;;
23230;SDS011;11784;49.818;8.632;2024-02-26T02:33:12;1.13;;;0.60;;
23230;SDS011;11784;49.818;8.632;2024-02-26T02:35:40;1.15;;;0.52;;
23230;SDS011;11784;49.818;8.632;2024-02-26T02:38:06;3.65;;;0.65;;
23230;SDS011;11784;49.818;8.632;2024-02-26T02:40:32;2.05;;;0.70;;
23230;SDS011;11784;49.818;8.632;2024-02-26T02:42:57;2.00;;;0.75;;
23230;SDS011;11784;49.818;8.632;2024-02-26T02:45:24;0.98;;;0.68;;
23230;SDS011;11784;49.818;8.632;2024-02-26T02:47:50;1.25;;;0.75;;
23230;SDS011;11784;49.818;8.632;2024-02-26T02:50:16;1.45;;;0.70;;
23230;SDS011;11784;49.818;8.632;2024-02-26T02:52:42;1.75;;;0.77;;
23230;SDS011;11784;49.818;8.632;2024-02-26T02:55:08;1.05;;;0.60;;
23230;SDS011;11784;49.818;8.632;2024-02-26T02:57:34;1.85;;;0.75;;
23230;SDS011;11784;49.818;8.632;2024-02-26T03:02:32;3.08;;;0.70;;
23230;SDS011;11784;49.818;8.632;2024-02-26T03:04:58;2.00;;;0.90;;
23230;SDS011;11784;49.818;8.632;2024-02-26T03:07:23;1.35;;;0.60;;
23230;SDS011;11784;49.818;8.632;2024-02-26T03:09:49;2.17;;;0.98;;
23230;SDS011;11784;49.818;8.632;2024-02-26T03:12:15;1.42;;;0.80;;
23230;SDS011;11784;49.818;8.632;2024-02-26T03:14:43;1.00;;;0.70;;
23230;SDS011;11784;49.818;8.632;2024-02-26T03:17:08;1.08;;;0.85;;
23230;SDS011;11784;49.818;8.632;2024-02-26T03:19:34;8.60;;;0.90;;
23230;SDS011;11784;49.818;8.632;2024-02-26T03:22:00;2.28;;;0.75;;
23230;SDS011;11784;49.818;8.632;2024-02-26T03:24:27;1.13;;;0.75;;
23230;SDS011;11784;49.818;8.632;2024-02-26T03:26:53;1.38;;;0.77;;
23230;SDS011;11784;49.818;8.632;2024-02-26T03:29:19;0.75;;;0.65;;
23230;SDS011;11784;49.818;8.632;2024-02-26T03:31:45;1.67;;;0.85;;
23230;SDS011;11784;49.818;8.632;2024-02-26T03:34:11;3.03;;;0.80;;
23230;SDS011;11784;49.818;8.632;2024-02-26T03:36:38;1.33;;;0.85;;
23230;SDS011;11784;49.818;8.632;2024-02-26T03:39:04;2.00;;;0.88;;
23230;SDS011;11784;49.818;8.632;2024-02-26T03:41:32;1.60;;;0.93;;
23230;SDS011;11784;49.818;8.632;2024-02-26T03:43:58;1.98;;;1.02;;
23230;SDS011;11784;49.818;8.632;2024-02-26T03:46:24;1.75;;;0.90;;
23230;SDS011;11784;49.818;8.632;2024-02-26T03:48:50;1.35;;;0.77;;
23230;SDS011;11784;49.818;8.632;2024-02-26T03:51:16;3.15;;;1.10;;
23230;SDS011;11784;49.818;8.632;2024-02-26T03:53:42;1.13;;;0.80;;
23230;SDS011;11784;49.818;8.632;2024-02-26T03:56:08;2.92;;;1.20;;
23230;SDS011;11784;49.818;8.632;2024-02-26T03:58:34;1.90;;;1.00;;
23230;SDS011;11784;49.818;8.632;2024-02-26T04:01:00;1.88;;;0.80;;
23230;SDS011;11784;49.818;8.632;2024-02-26T04:03:26;1.98;;;0.90;;
23230;SDS011;11784;49.818;8.632;2024-02-26T04:05:52;3.08;;;1.38;;
23230;SDS011;11784;49.818;8.632;2024-02-26T04:08:18;1.88;;;0.95;;
23230;SDS011;11784;49.818;8.632;2024-02-26T04:10:44;2.53;;;0.95;;
23230;SDS011;11784;49.818;8.632;2024-02-26T04:13:10;1.77;;;1.20;;
23230;SDS011;11784;49.818;8.632;2024-02-26T04:15:36;4.18;;;1.05;;
23230;SDS011;11784;49.818;8.632;2024-02-26T04:18:02;3.20;;;1.35;;
23230;SDS011;11784;49.818;8.632;2024-02-26T04:20:28;2.22;;;1.30;;
23230;SDS011;11784;49.818;8.632;2024-02-26T04:22:54;3.45;;;1.25;;
23230;SDS011;11784;49.818;8.632;2024-02-26T04:25:20;1.48;;;1.10;;
23230;SDS011;11784;49.818;8.632;2024-02-26T04:27:46;5.45;;;1.70;;
23230;SDS011;11784;49.818;8.632;2024-02-26T04:30:12;2.65;;;0.90;;
23230;SDS011;11784;49.818;8.632;2024-02-26T04:32:38;1.33;;;0.73;;
23230;SDS011;11784;49.818;8.632;2024-02-26T04:35:04;2.53;;;1.00;;
23230;SDS011;11784;49.818;8.632;2024-02-26T04:37:30;1.88;;;1.10;;
23230;SDS011;11784;49.818;8.632;2024-02-26T04:39:59;4.57;;;1.10;;
23230;SDS011;11784;49.818;8.632;2024-02-26T04:42:26;2.67;;;1.08;;
23230;SDS011;11784;49.818;8.632;2024-02-26T04:44:52;2.83;;;1.17;;
23230;SDS011;11784;49.818;8.632;2024-02-26T04:47:18;0.95;;;0.70;;
23230;SDS011;11784;49.818;8.632;2024-02-26T04:49:43;1.73;;;0.90;;
23230;SDS011;11784;49.818;8.632;2024-02-26T04:52:09;1.63;;;0.80;;
23230;SDS011;11784;49.818;8.632;2024-02-26T04:54:35;1.77;;;0.90;;
23230;SDS011;11784;49.818;8.632;2024-02-26T04:57:01;1.55;;;0.93;;
23230;SDS011;11784;49.818;8.632;2024-02-26T04:59:27;1.38;;;0.90;;
23230;SDS011;11784;49.818;8.632;2024-02-26T05:01:53;1.52;;;1.08;;
23230;SDS011;11784;49.818;8.632;2024-02-26T05:04:19;2.58;;;0.90;;
23230;SDS011;11784;49.818;8.632;2024-02-26T05:06:45;1.40;;;1.00;;
23230;SDS011;11784;49.818;8.632;2024-02-26T05:09:11;2.15;;;1.10;;
23230;SDS011;11784;49.818;8.632;2024-02-26T05:11:37;3.10;;;1.17;;
23230;SDS011;11784;49.818;8.632;2024-02-26T05:14:03;2.30;;;0.90;;
23230;SDS011;11784;49.818;8.632;2024-02-26T05:16:29;2.70;;;1.05;;
23230;SDS011;11784;49.818;8.632;2024-02-26T05:18:56;2.97;;;1.00;;
23230;SDS011;11784;49.818;8.632;2024-02-26T05:21:22;2.10;;;1.05;;
23230;SDS011;11784;49.818;8.632;2024-02-26T05:23:48;1.88;;;1.00;;
23230;SDS011;11784;49.818;8.632;2024-02-26T05:26:22;1.90;;;0.93;;
23230;SDS011;11784;49.818;8.632;2024-02-26T05:28:49;1.40;;;0.80;;
23230;SDS011;11784;49.818;8.632;2024-02-26T05:31:15;1.70;;;1.02;;
23230;SDS011;11784;49.818;8.632;2024-02-26T05:33:43;1.27;;;0.77;;
23230;SDS011;11784;49.818;8.632;2024-02-26T05:36:09;1.77;;;0.80;;
23230;SDS011;11784;49.818;8.632;2024-02-26T05:38:35;1.77;;;0.90;;
23230;SDS011;11784;49.818;8.632;2024-02-26T05:41:01;4.95;;;1.10;;
23230;SDS011;11784;49.818;8.632;2024-02-26T05:43:27;2.22;;;0.95;;
23230;SDS011;11784;49.818;8.632;2024-02-26T05:45:54;1.80;;;1.02;;
23230;SDS011;11784;49.818;8.632;2024-02-26T05:48:21;4.15;;;1.65;;
23230;SDS011;11784;49.818;8.632;2024-02-26T05:50:47;2.75;;;1.30;;
23230;SDS011;11784;49.818;8.632;2024-02-26T05:53:13;2.30;;;1.25;;
23230;SDS011;11784;49.818;8.632;2024-02-26T05:55:39;2.30;;;1.30;;
23230;SDS011;11784;49.818;8.632;2024-02-26T05:58:05;2.22;;;1.20;;
23230;SDS011;11784;49.818;8.632;2024-02-26T06:00:31;2.75;;;1.50;;
23230;SDS011;11784;49.818;8.632;2024-02-26T06:02:57;1.73;;;1.02;;
23230;SDS011;11784;49.818;8.632;2024-02-26T06:05:23;1.50;;;1.10;;
23230;SDS011;11784;49.818;8.632;2024-02-26T06:07:49;2.38;;;1.30;;
23230;SDS011;11784;49.818;8.632;2024-02-26T06:10:15;3.67;;;1.40;;
23230;SDS011;11784;49.818;8.632;2024-02-26T06:12:41;2.45;;;1.45;;
23230;SDS011;11784;49.818;8.632;2024-02-26T06:15:07;2.42;;;1.60;;
23230;SDS011;11784;49.818;8.632;2024-02-26T06:17:34;2.25;;;1.30;;
23230;SDS011;11784;49.818;8.632;2024-02-26T06:20:00;1.60;;;1.27;;
23230;SDS011;11784;49.818;8.632;2024-02-26T06:22:26;1.63;;;1.10;;
23230;SDS011;11784;49.818;8.632;2024-02-26T06:24:52;3.90;;;1.40;;
23230;SDS011;11784;49.818;8.632;2024-02-26T06:27:18;1.70;;;1.35;;
23230;SDS011;11784;49.818;8.632;2024-02-26T06:29:44;2.63;;;1.33;;
23230;SDS011;11784;49.818;8.632;2024-02-26T06:32:10;3.80;;;1.60;;
23230;SDS011;11784;49.818;8.632;2024-02-26T06:34:36;3.92;;;1.30;;
23230;SDS011;11784;49.818;8.632;2024-02-26T06:37:03;3.10;;;1.15;;
23230;SDS011;11784;49.818;8.632;2024-02-26T06:39:29;3.08;;;1.50;;
23230;SDS011;11784;49.818;8.632;2024-02-26T06:41:55;4.45;;;1.40;;
23230;SDS011;11784;49.818;8.632;2024-02-26T06:44:25;3.15;;;1.60;;
23230;SDS011;11784;49.818;8.632;2024-02-26T06:46:56;2.78;;;1.40;;
23230;SDS011;11784;49.818;8.632;2024-02-26T06:49:22;2.15;;;1.20;;
23230;SDS011;11784;49.818;8.632;2024-02-26T06:51:48;3.40;;;1.60;;
23230;SDS011;11784;49.818;8.632;2024-02-26T06:54:14;2.90;;;1.70;;
23230;SDS011;11784;49.818;8.632;2024-02-26T06:56:40;3.65;;;1.95;;
23230;SDS011;11784;49.818;8.632;2024-02-26T06:59:06;4.32;;;2.03;;
23230;SDS011;11784;49.818;8.632;2024-02-26T07:01:32;3.75;;;1.95;;
23230;SDS011;11784;49.818;8.632;2024-02-26T07:03:57;2.65;;;1.88;;
23230;SDS011;11784;49.818;8.632;2024-02-26T07:06:23;2.97;;;1.70;;
23230;SDS011;11784;49.818;8.632;2024-02-26T07:08:49;5.85;;;1.90;;
23230;SDS011;11784;49.818;8.632;2024-02-26T07:11:15;3.95;;;2.00;;
23230;SDS011;11784;49.818;8.632;2024-02-26T07:13:41;3.90;;;2.08;;
23230;SDS011;11784;49.818;8.632;2024-02-26T07:16:08;3.67;;;2.13;;
23230;SDS011;11784;49.818;8.632;2024-02-26T07:18:35;4.68;;;1.77;;
23230;SDS011;11784;49.818;8.632;2024-02-26T07:21:01;4.50;;;2.00;;
23230;SDS011;11784;49.818;8.632;2024-02-26T07:23:28;3.60;;;1.80;;
23230;SDS011;11784;49.818;8.632;2024-02-26T07:25:54;4.30;;;2.30;;
23230;SDS011;11784;49.818;8.632;2024-02-26T07:28:20;3.28;;;2.05;;
23230;SDS011;11784;49.818;8.632;2024-02-26T07:30:46;4.30;;;2.47;;
23230;SDS011;11784;49.818;8.632;2024-02-26T07:33:12;5.82;;;2.00;;
23230;SDS011;11784;49.818;8.632;2024-02-26T07:35:38;4.40;;;2.05;;
23230;SDS011;11784;49.818;8.632;2024-02-26T07:38:04;6.57;;;1.95;;
23230;SDS011;11784;49.818;8.632;2024-02-26T07:40:30;3.60;;;2.00;;
23230;SDS011;11784;49.818;8.632;2024-02-26T07:42:56;4.07;;;2.33;;
23230;SDS011;11784;49.818;8.632;2024-02-26T07:45:22;5.43;;;2.60;;
23230;SDS011;11784;49.818;8.632;2024-02-26T07:47:48;3.35;;;1.90;;
23230;SDS011;11784;49.818;8.632;2024-02-26T07:50:16;4.18;;;2.08;;
23230;SDS011;11784;49.818;8.632;2024-02-26T07:52:42;3.72;;;2.05;;
23230;SDS011;11784;49.818;8.632;2024-02-26T07:55:08;5.70;;;2.80;;
23230;SDS011;11784;49.818;8.632;2024-02-26T07:57:35;5.00;;;2.78;;
23230;SDS011;11784;49.818;8.632;2024-02-26T08:00:01;6.72;;;3.17;;
23230;SDS011;11784;49.818;8.632;2024-02-26T08:02:28;11.15;;;3.50;;
23230;SDS011;11784;49.818;8.632;2024-02-26T08:04:53;9.88;;;3.67;;
23230;SDS011;11784;49.818;8.632;2024-02-26T08:07:19;12.77;;;3.88;;
23230;SDS011;11784;49.818;8.632;2024-02-26T08:09:46;8.68;;;3.58;;
23230;SDS011;11784;49.818;8.632;2024-02-26T08:12:12;5.28;;;2.95;;
23230;SDS011;11784;49.818;8.632;2024-02-26T08:14:38;8.15;;;3.00;;
23230;SDS011;11784;49.818;8.632;2024-02-26T08:17:04;4.78;;;2.60;;
23230;SDS011;11784;49.818;8.632;2024-02-26T08:19:30;5.10;;;2.90;;
23230;SDS011;11784;49.818;8.632;2024-02-26T08:21:56;4.95;;;2.47;;
23230;SDS011;11784;49.818;8.632;2024-02-26T08:24:22;3.17;;;2.03;;
23230;SDS011;11784;49.818;8.632;2024-02-26T08:26:49;5.13;;;2.80;;
23230;SDS011;11784;49.818;8.632;2024-02-26T08:29:14;4.07;;;2.10;;
23230;SDS011;11784;49.818;8.632;2024-02-26T08:31:40;4.43;;;2.00;;
23230;SDS011;11784;49.818;8.632;2024-02-26T08:34:06;2.92;;;1.85;;
23230;SDS011;11784;49.818;8.632;2024-02-26T08:36:33;4.78;;;2.08;;
23230;SDS011;11784;49.818;8.632;2024-02-26T08:39:00;4.80;;;2.50;;
23230;SDS011;11784;49.818;8.632;2024-02-26T08:41:26;6.03;;;2.53;;
23230;SDS011;11784;49.818;8.632;2024-02-26T08:43:52;5.03;;;2.40;;
23230;SDS011;11784;49.818;8.632;2024-02-26T08:46:18;3.38;;;2.10;;
23230;SDS011;11784;49.818;8.632;2024-02-26T08:48:44;5.88;;;2.10;;
23230;SDS011;11784;49.818;8.632;2024-02-26T08:51:09;3.42;;;2.13;;
23230;SDS011;11784;49.818;8.632;2024-02-26T08:53:36;3.40;;;2.13;;
23230;SDS011;11784;49.818;8.632;2024-02-26T08:56:02;2.67;;;2.00;;
23230;SDS011;11784;49.818;8.632;2024-02-26T08:58:28;4.22;;;2.83;;
23230;SDS011;11784;49.818;8.632;2024-02-26T09:00:54;10.52;;;3.90;;
23230;SDS011;11784;49.818;8.632;2024-02-26T09:03:20;4.63;;;3.00;;
23230;SDS011;11784;49.818;8.632;2024-02-26T09:05:46;5.38;;;2.80;;
23230;SDS011;11784;49.818;8.632;2024-02-26T09:08:12;5.63;;;2.65;;
23230;SDS011;11784;49.818;8.632;2024-02-26T09:10:39;4.82;;;2.30;;
23230;SDS011;11784;49.818;8.632;2024-02-26T09:13:05;4.40;;;2.20;;
23230;SDS011;11784;49.818;8.632;2024-02-26T09:15:31;6.32;;;2.72;;
23230;SDS011;11784;49.818;8.632;2024-02-26T09:17:57;6.70;;;2.33;;
23230;SDS011;11784;49.818;8.632;2024-02-26T09:20:23;5.68;;;2.80;;
23230;SDS011;11784;49.818;8.632;2024-02-26T09:22:49;3.55;;;2.65;;
23230;SDS011;11784;49.818;8.632;2024-02-26T09:25:15;4.45;;;2.35;;
23230;SDS011;11784;49.818;8.632;2024-02-26T09:27:42;3.85;;;2.45;;
23230;SDS011;11784;49.818;8.632;2024-02-26T09:30:09;6.78;;;2.88;;
23230;SDS011;11784;49.818;8.632;2024-02-26T09:32:35;4.57;;;2.70;;
23230;SDS011;11784;49.818;8.632;2024-02-26T09:35:01;4.72;;;3.17;;
23230;SDS011;11784;49.818;8.632;2024-02-26T09:37:27;4.03;;;2.53;;
23230;SDS011;11784;49.818;8.632;2024-02-26T09:39:53;5.13;;;2.83;;
23230;SDS011;11784;49.818;8.632;2024-02-26T09:42:19;3.90;;;2.40;;
23230;SDS011;11784;49.818;8.632;2024-02-26T09:44:45;3.90;;;2.83;;
23230;SDS011;11784;49.818;8.632;2024-02-26T09:47:12;4.70;;;2.70;;
23230;SDS011;11784;49.818;8.632;2024-02-26T09:49:42;7.00;;;2.53;;
23230;SDS011;11784;49.818;8.632;2024-02-26T09:52:08;5.25;;;3.13;;
23230;SDS011;11784;49.818;8.632;2024-02-26T09:54:35;5.68;;;2.60;;
23230;SDS011;11784;49.818;8.632;2024-02-26T09:57:02;4.95;;;2.47;;
23230;SDS011;11784;49.818;8.632;2024-02-26T09:59:29;4.63;;;2.42;;
23230;SDS011;11784;49.818;8.632;2024-02-26T10:01:55;5.35;;;3.03;;
23230;SDS011;11784;49.818;8.632;2024-02-26T10:04:22;4.88;;;2.58;;
23230;SDS011;11784;49.818;8.632;2024-02-26T10:06:48;3.75;;;2.65;;
23230;SDS011;11784;49.818;8.632;2024-02-26T10:09:14;4.68;;;2.47;;
23230;SDS011;11784;49.818;8.632;2024-02-26T10:11:41;4.75;;;2.17;;
23230;SDS011;11784;49.818;8.632;2024-02-26T10:14:08;6.68;;;2.50;;
23230;SDS011;11784;49.818;8.632;2024-02-26T10:16:34;5.80;;;2.33;;
23230;SDS011;11784;49.818;8.632;2024-02-26T10:19:01;6.18;;;2.10;;
23230;SDS011;11784;49.818;8.632;2024-02-26T10:21:26;5.15;;;2.50;;
23230;SDS011;11784;49.818;8.632;2024-02-26T10:23:53;9.52;;;3.72;;
23230;SDS011;11784;49.818;8.632;2024-02-26T10:26:19;3.97;;;2.40;;
23230;SDS011;11784;49.818;8.632;2024-02-26T10:28:45;3.85;;;2.30;;
23230;SDS011;11784;49.818;8.632;2024-02-26T10:31:13;4.82;;;2.50;;
23230;SDS011;11784;49.818;8.632;2024-02-26T10:33:39;7.13;;;2.97;;
23230;SDS011;11784;49.818;8.632;2024-02-26T10:36:06;8.90;;;3.67;;
23230;SDS011;11784;49.818;8.632;2024-02-26T10:38:32;9.27;;;3.92;;
23230;SDS011;11784;49.818;8.632;2024-02-26T10:40:58;13.70;;;4.35;;
23230;SDS011;11784;49.818;8.632;2024-02-26T10:43:25;7.85;;;3.20;;
23230;SDS011;11784;49.818;8.632;2024-02-26T10:45:51;7.65;;;3.22;;
23230;SDS011;11784;49.818;8.632;2024-02-26T10:48:17;8.18;;;4.07;;
23230;SDS011;11784;49.818;8.632;2024-02-26T10:50:43;16.38;;;5.85;;
23230;SDS011;11784;49.818;8.632;2024-02-26T10:53:42;20.38;;;7.22;;
23230;SDS011;11784;49.818;8.632;2024-02-26T10:56:02;9.38;;;4.15;;
23230;SDS011;11784;49.818;8.632;2024-02-26T10:58:29;9.52;;;4.25;;
23230;SDS011;11784;49.818;8.632;2024-02-26T11:00:55;8.23;;;3.83;;
23230;SDS011;11784;49.818;8.632;2024-02-26T11:03:22;3.35;;;2.25;;
23230;SDS011;11784;49.818;8.632;2024-02-26T11:05:49;3.22;;;2.08;;
23230;SDS011;11784;49.818;8.632;2024-02-26T11:08:15;3.88;;;2.25;;
23230;SDS011;11784;49.818;8.632;2024-02-26T11:10:44;5.55;;;2.53;;
23230;SDS011;11784;49.818;8.632;2024-02-26T11:13:14;4.05;;;2.35;;
23230;SDS011;11784;49.818;8.632;2024-02-26T11:15:40;3.97;;;2.20;;
23230;SDS011;11784;49.818;8.632;2024-02-26T11:18:06;4.25;;;1.98;;
23230;SDS011;11784;49.818;8.632;2024-02-26T11:20:33;3.17;;;2.05;;
23230;SDS011;11784;49.818;8.632;2024-02-26T11:23:00;3.92;;;1.90;;
23230;SDS011;11784;49.818;8.632;2024-02-26T11:25:26;2.67;;;1.83;;
23230;SDS011;11784;49.818;8.632;2024-02-26T11:27:53;3.83;;;2.30;;
23230;SDS011;11784;49.818;8.632;2024-02-26T11:30:22;2.83;;;1.77;;
23230;SDS011;11784;49.818;8.632;2024-02-26T11:32:50;4.78;;;1.58;;
23230;SDS011;11784;49.818;8.632;2024-02-26T11:35:17;5.45;;;1.90;;
23230;SDS011;11784;49.818;8.632;2024-02-26T11:37:56;5.28;;;1.90;;
23230;SDS011;11784;49.818;8.632;2024-02-26T11:40:23;5.57;;;2.10;;
23230;SDS011;11784;49.818;8.632;2024-02-26T11:42:50;3.15;;;1.90;;
23230;SDS011;11784;49.818;8.632;2024-02-26T11:48:02;3.40;;;2.00;;
23230;SDS011;11784;49.818;8.632;2024-02-26T11:50:35;4.05;;;2.08;;
23230;SDS011;11784;49.818;8.632;2024-02-26T11:55:46;4.43;;;2.28;;
23230;SDS011;11784;49.818;8.632;2024-02-26T11:58:12;4.00;;;1.80;;
23230;SDS011;11784;49.818;8.632;2024-02-26T12:00:39;3.55;;;2.05;;
23230;SDS011;11784;49.818;8.632;2024-02-26T12:03:05;5.55;;;2.05;;
23230;SDS011;11784;49.818;8.632;2024-02-26T12:05:33;3.58;;;1.55;;
23230;SDS011;11784;49.818;8.632;2024-02-26T12:08:02;3.58;;;1.80;;
23230;SDS011;11784;49.818;8.632;2024-02-26T12:10:31;3.38;;;1.70;;
23230;SDS011;11784;49.818;8.632;2024-02-26T12:15:33;3.47;;;1.90;;
23230;SDS011;11784;49.818;8.632;2024-02-26T12:18:02;2.30;;;1.50;;
23230;SDS011;11784;49.818;8.632;2024-02-26T12:20:28;3.33;;;1.90;;
23230;SDS011;11784;49.818;8.632;2024-02-26T12:22:54;3.80;;;2.08;;
23230;SDS011;11784;49.818;8.632;2024-02-26T12:25:24;3.88;;;2.00;;
23230;SDS011;11784;49.818;8.632;2024-02-26T12:27:54;4.03;;;2.17;;
23230;SDS011;11784;49.818;8.632;2024-02-26T12:30:20;3.30;;;1.90;;
23230;SDS011;11784;49.818;8.632;2024-02-26T12:32:50;3.72;;;2.50;;
23230;SDS011;11784;49.818;8.632;2024-02-26T12:35:16;4.68;;;2.00;;
23230;SDS011;11784;49.818;8.632;2024-02-26T12:37:43;4.13;;;2.13;;
23230;SDS011;11784;49.818;8.632;2024-02-26T12:40:09;3.10;;;2.00;;
23230;SDS011;11784;49.818;8.632;2024-02-26T12:42:36;4.28;;;2.15;;
23230;SDS011;11784;49.818;8.632;2024-02-26T12:45:05;2.95;;;1.90;;
23230;SDS011;11784;49.818;8.632;2024-02-26T12:47:35;3.05;;;1.85;;
23230;SDS011;11784;49.818;8.632;2024-02-26T12:50:01;4.05;;;1.70;;
23230;SDS011;11784;49.818;8.632;2024-02-26T12:52:28;3.53;;;2.30;;
23230;SDS011;11784;49.818;8.632;2024-02-26T12:54:54;2.67;;;1.85;;
23230;SDS011;11784;49.818;8.632;2024-02-26T12:57:20;4.13;;;2.00;;
23230;SDS011;11784;49.818;8.632;2024-02-26T12:59:46;2.72;;;1.75;;
23230;SDS011;11784;49.818;8.632;2024-02-26T13:02:12;3.17;;;1.88;;
23230;SDS011;11784;49.818;8.632;2024-02-26T13:04:38;5.03;;;2.13;;
23230;SDS011;11784;49.818;8.632;2024-02-26T13:07:04;3.03;;;2.00;;
23230;SDS011;11784;49.818;8.632;2024-02-26T13:09:34;5.68;;;2.45;;
23230;SDS011;11784;49.818;8.632;2024-02-26T13:12:01;3.72;;;1.98;;
23230;SDS011;11784;49.818;8.632;2024-02-26T13:14:29;2.90;;;1.90;;
23230;SDS011;11784;49.818;8.632;2024-02-26T13:16:57;4.55;;;2.30;;
23230;SDS011;11784;49.818;8.632;2024-02-26T13:19:23;3.83;;;2.20;;
23230;SDS011;11784;49.818;8.632;2024-02-26T13:21:49;4.28;;;2.20;;
23230;SDS011;11784;49.818;8.632;2024-02-26T13:24:15;4.50;;;1.92;;
23230;SDS011;11784;49.818;8.632;2024-02-26T13:26:42;4.78;;;2.38;;
23230;SDS011;11784;49.818;8.632;2024-02-26T13:29:08;3.85;;;2.13;;
23230;SDS011;11784;49.818;8.632;2024-02-26T13:31:40;5.20;;;2.40;;
23230;SDS011;11784;49.818;8.632;2024-02-26T13:34:06;4.38;;;2.42;;
23230;SDS011;11784;49.818;8.632;2024-02-26T13:36:32;3.30;;;2.05;;
23230;SDS011;11784;49.818;8.632;2024-02-26T13:38:58;3.80;;;1.75;;
23230;SDS011;11784;49.818;8.632;2024-02-26T13:41:26;5.75;;;2.58;;
23230;SDS011;11784;49.818;8.632;2024-02-26T13:43:52;4.38;;;2.00;;
23230;SDS011;11784;49.818;8.632;2024-02-26T13:46:18;6.38;;;2.47;;
23230;SDS011;11784;49.818;8.632;2024-02-26T13:48:44;5.47;;;2.38;;
23230;SDS011;11784;49.818;8.632;2024-02-26T13:51:10;4.15;;;2.40;;
23230;SDS011;11784;49.818;8.632;2024-02-26T13:53:36;5.30;;;2.13;;
23230;SDS011;11784;49.818;8.632;2024-02-26T13:56:02;4.50;;;2.55;;
23230;SDS011;11784;49.818;8.632;2024-02-26T13:58:30;3.58;;;1.95;;
23230;SDS011;11784;49.818;8.632;2024-02-26T14:00:56;4.10;;;2.00;;
23230;SDS011;11784;49.818;8.632;2024-02-26T14:03:24;4.57;;;2.30;;
23230;SDS011;11784;49.818;8.632;2024-02-26T14:05:51;4.57;;;2.30;;
23230;SDS011;11784;49.818;8.632;2024-02-26T14:08:17;4.22;;;2.00;;
23230;SDS011;11784;49.818;8.632;2024-02-26T14:10:43;3.65;;;2.30;;
23230;SDS011;11784;49.818;8.632;2024-02-26T14:13:09;3.67;;;2.33;;
23230;SDS011;11784;49.818;8.632;2024-02-26T14:15:35;3.58;;;1.90;;
23230;SDS011;11784;49.818;8.632;2024-02-26T14:18:01;5.55;;;2.00;;
23230;SDS011;11784;49.818;8.632;2024-02-26T14:20:29;3.90;;;2.40;;
23230;SDS011;11784;49.818;8.632;2024-02-26T14:22:54;2.50;;;1.60;;
23230;SDS011;11784;49.818;8.632;2024-02-26T14:25:21;3.05;;;1.92;;
23230;SDS011;11784;49.818;8.632;2024-02-26T14:27:47;5.72;;;1.95;;
23230;SDS011;11784;49.818;8.632;2024-02-26T14:30:13;5.55;;;2.38;;
23230;SDS011;11784;49.818;8.632;2024-02-26T14:32:39;3.35;;;2.25;;
23230;SDS011;11784;49.818;8.632;2024-02-26T14:35:06;3.40;;;1.83;;
23230;SDS011;11784;49.818;8.632;2024-02-26T14:37:32;4.88;;;2.13;;
23230;SDS011;11784;49.818;8.632;2024-02-26T14:39:58;3.67;;;2.10;;
23230;SDS011;11784;49.818;8.632;2024-02-26T14:42:24;3.55;;;2.00;;
23230;SDS011;11784;49.818;8.632;2024-02-26T14:44:50;5.35;;;1.88;;
23230;SDS011;11784;49.818;8.632;2024-02-26T14:47:16;4.50;;;2.45;;
23230;SDS011;11784;49.818;8.632;2024-02-26T14:49:42;3.30;;;2.10;;
23230;SDS011;11784;49.818;8.632;2024-02-26T14:52:09;5.53;;;2.58;;
23230;SDS011;11784;49.818;8.632;2024-02-26T14:54:36;5.50;;;2.83;;